Smithton, MO (65350)

8:13 AM CDT on May 29, 2015 (GMT -0500)
Maplewood | | Change Station
CLOSE
Current Station
Personal Weather Station
Location: Sedalia, MO
Elevation: 899 ft
Nearby Weather Stations

Elev 899 ft 38.69 °N, 93.16 °W | Updated 1 minute ago

Clear
Clear
66.7 °F
Feels Like 66.7 °F
N
2.7
Wind Variable Wind from SW
Gusts 4.9 mph

Today
High -- | Low -- °F
--% Chance of Precip.
Yesterday
High -- | Low -- °F
Precip. -- in
5:50 AM 8:28 PM
Waxing Gibbous, 83% visible
Pressure 30.03 in
Visibility 10.0 miles
Clouds Scattered Clouds 1800 ft
Scattered Clouds 3100 ft
Mostly Cloudy 4300 ft
Dew Point 66 °F
Humidity 96%
Rainfall 0.00 in
Snow Depth Not available.
UV 1.0 out of 12
Pollen 7.10 out of 12
Air Quality Not available.
Flu Activity Sporadic
SPECI KDMO 291302Z AUTO 22011KT 10SM -RA SCT018 SCT031 BKN043 20/18 A3003 RMK AO2 RAB1258 P0001 T02000178 TSNO

More Conditions Fewer Conditions

Pressure 30.03 in
Visibility 10.0 miles
Clouds Scattered Clouds 1800 ft
Scattered Clouds 3100 ft
Mostly Cloudy 4300 ft
Dew Point 66 °F
Humidity 96%
Rainfall 0.00 in
Snow Depth Not available.
UV 1.0 out of 12
Pollen 7.10 out of 12
Air Quality Not available.
Flu Activity Sporadic
SPECI KDMO 291302Z AUTO 22011KT 10SM -RA SCT018 SCT031 BKN043 20/18 A3003 RMK AO2 RAB1258 P0001 T02000178 TSNO

More Conditions Fewer Conditions

10-Day Weather Forecast

Almanac

Astronomy

May. 29, 2015 Rise Set
Actual Time
Civil Twilight
Nautical Twilight
Astronomical Twilight
Moon
Length of Visible Light
Length of Day
Tomorrow will be .
, % of the Moon is Illuminated

Today's Extremes

State Highs State Lows

Community

WunderPhotos

Upload Photos

1,825,254 photos uploaded!

WunderBlogs® & News

Nearby

Air Quality

  Air Quality AQ Index Pollutant
Not available.

Snow Depth

Station Depth Elevation

Earthquake Activity

City Distance Mag. Time & Date
Minimum magnitude displayed is 2.5.

Coastal Water Temperatures

Place Temperature

Stations

Nearby Weather Stations

Station Location Temp. Windchill Dew Point Humidity Wind Precip. Elev Updated Type